createdAt,value
2022-11-13T00:02:37.729Z,33.53
2022-11-13T00:07:40.107Z,36.67
2022-11-13T00:12:42.540Z,36.47
2022-11-13T00:17:46.269Z,35.85
2022-11-13T00:22:48.642Z,39.20
2022-11-13T00:27:51.141Z,35.95
2022-11-13T00:32:54.810Z,30.02
2022-11-13T00:37:57.194Z,39.40
2022-11-13T00:42:59.560Z,33.75
2022-11-13T00:48:03.284Z,38.45
2022-11-13T00:53:05.664Z,42.15
2022-11-13T00:58:08.014Z,37.42
2022-11-13T01:03:12.164Z,38.00
2022-11-13T01:08:15.472Z,40.70
2022-11-13T01:13:17.847Z,36.25
2022-11-13T01:18:21.585Z,34.00
2022-11-13T01:23:23.976Z,40.38
2022-11-13T01:28:26.587Z,36.75
2022-11-13T01:33:30.541Z,36.57
2022-11-13T01:43:39.307Z,43.65
2022-11-13T01:48:44.788Z,40.33
2022-11-13T01:53:48.349Z,40.28
2022-11-13T02:03:54.289Z,35.50
2022-11-13T02:08:57.093Z,38.35
2022-11-13T02:13:59.640Z,37.13
2022-11-13T02:19:04.793Z,42.97
2022-11-13T02:24:17.244Z,39.92
2022-11-13T02:29:19.604Z,42.85
2022-11-13T02:34:22.192Z,41.25
2022-11-13T02:39:25.900Z,40.83
2022-11-13T02:49:30.426Z,37.30
2022-11-13T02:54:34.159Z,38.45
2022-11-13T02:59:36.513Z,40.60
2022-11-13T03:05:10.478Z,40.25
2022-11-13T03:10:02.574Z,36.22
2022-11-13T03:15:05.264Z,40.65
2022-11-13T03:20:08.748Z,37.73
2022-11-13T03:25:12.430Z,38.17
2022-11-13T03:35:17.065Z,35.10
2022-11-13T03:40:20.794Z,35.97
2022-11-13T03:45:23.148Z,38.25
2022-11-13T03:50:25.485Z,35.00
2022-11-13T03:55:29.239Z,33.85
2022-11-13T04:00:31.608Z,34.97
2022-11-13T04:05:33.962Z,39.05
2022-11-13T04:10:37.676Z,35.08
2022-11-13T04:15:40.045Z,36.15
2022-11-13T04:20:42.363Z,30.10
2022-11-13T04:25:46.077Z,31.13
2022-11-13T04:30:48.451Z,33.17
2022-11-13T04:35:50.823Z,33.28
2022-11-13T04:41:14.500Z,30.40
2022-11-13T04:46:16.914Z,30.23
2022-11-13T04:51:19.262Z,28.70
2022-11-13T04:56:22.965Z,31.88
2022-11-13T05:01:25.446Z,29.02
2022-11-13T05:06:27.856Z,31.67
2022-11-13T05:11:31.548Z,31.30
2022-11-13T05:21:37.308Z,31.08
2022-11-13T05:26:41.090Z,28.70
2022-11-13T05:31:43.597Z,26.70
2022-11-13T05:36:45.959Z,28.63
2022-11-13T05:41:49.660Z,26.75
2022-11-13T05:51:55.225Z,29.00
2022-11-13T05:56:58.927Z,30.58
2022-11-13T06:07:03.593Z,24.73
2022-11-13T06:12:07.697Z,26.65
2022-11-13T06:17:10.046Z,29.45
2022-11-13T06:22:12.478Z,29.25
2022-11-13T06:27:16.201Z,26.08
2022-11-13T06:32:18.561Z,27.45
2022-11-13T06:37:20.922Z,30.35
2022-11-13T06:42:24.592Z,25.20
2022-11-13T06:52:29.198Z,27.85
2022-11-13T06:57:32.880Z,31.10
2022-11-13T07:07:37.468Z,29.77
2022-11-13T07:12:41.466Z,31.98
2022-11-13T07:17:43.800Z,33.33
2022-11-13T07:22:46.187Z,36.05
2022-11-13T07:27:49.872Z,33.80
2022-11-13T07:37:56.332Z,29.80
2022-11-13T07:43:00.637Z,29.30
2022-11-13T07:48:03.599Z,43.53
2022-11-13T07:53:07.926Z,30.15
2022-11-13T07:58:11.855Z,15.23
2022-11-13T08:03:15.705Z,11.95
2022-11-13T08:08:18.089Z,10.93
2022-11-13T08:13:21.769Z,11.07
2022-11-13T08:18:24.106Z,9.82
2022-11-13T08:23:26.471Z,10.97
2022-11-13T08:28:30.571Z,9.07
2022-11-13T08:33:33.120Z,8.27
2022-11-13T08:38:35.457Z,9.10
2022-11-13T08:43:39.172Z,9.83
2022-11-13T08:48:41.558Z,8.70
2022-11-13T08:53:43.969Z,9.48
2022-11-13T08:58:47.801Z,8.18
2022-11-13T09:03:50.464Z,7.53
2022-11-13T09:08:52.887Z,7.93
2022-11-13T09:13:56.788Z,26.13
2022-11-13T09:18:59.225Z,7.40
2022-11-13T09:24:01.597Z,12.23
2022-11-13T09:29:05.452Z,6.93
2022-11-13T09:34:07.845Z,8.88
2022-11-13T09:39:10.334Z,8.45
2022-11-13T09:44:16.924Z,7.35
2022-11-13T09:49:23.031Z,6.53
2022-11-13T09:54:25.640Z,7.35
2022-11-13T10:04:35.783Z,5.82
2022-11-13T10:09:51.137Z,6.25
2022-11-13T10:14:53.848Z,8.63
2022-11-13T10:19:59.711Z,7.00
2022-11-13T10:25:06.109Z,7.55
2022-11-13T10:30:13.980Z,8.60
2022-11-13T10:35:37.035Z,8.00
2022-11-13T10:40:40.495Z,7.28
2022-11-13T10:45:43.408Z,7.65
2022-11-13T10:50:53.463Z,6.45
2022-11-13T10:55:57.671Z,7.00
2022-11-13T11:01:00.056Z,7.35
2022-11-13T11:06:05.015Z,7.43
2022-11-13T11:11:26.849Z,6.68
2022-11-13T11:16:29.267Z,7.85
2022-11-13T11:21:33.821Z,6.95
2022-11-13T11:26:38.676Z,8.07
2022-11-13T11:31:43.113Z,6.93
2022-11-13T11:36:50.809Z,8.20
2022-11-13T11:41:56.560Z,7.13
2022-11-13T11:46:58.981Z,7.13
2022-11-13T11:52:09.617Z,6.38
2022-11-13T11:57:20.737Z,8.00
2022-11-13T12:02:32.337Z,7.80
2022-11-13T12:07:41.864Z,7.03
2022-11-13T12:12:52.611Z,7.35
2022-11-13T12:17:59.080Z,6.32
2022-11-13T12:23:09.235Z,6.30
2022-11-13T12:28:14.973Z,6.13
2022-11-13T12:33:22.111Z,5.80
2022-11-13T12:38:32.217Z,5.82
2022-11-13T12:43:42.766Z,7.03
2022-11-13T12:48:45.880Z,5.85
2022-11-13T12:53:50.345Z,6.22
2022-11-13T12:59:15.401Z,6.75
2022-11-13T13:04:30.226Z,5.57
2022-11-13T13:09:40.490Z,4.85
2022-11-13T13:14:53.142Z,5.40
2022-11-13T13:19:59.737Z,4.30
2022-11-13T13:25:04.881Z,4.30
2022-11-13T13:30:17.063Z,6.03
2022-11-13T13:35:20.975Z,5.10
2022-11-13T13:40:28.909Z,3.95
2022-11-13T13:45:35.451Z,4.22
2022-11-13T13:50:41.441Z,4.22
2022-11-13T13:55:47.800Z,4.15
2022-11-13T14:01:17.019Z,3.97
2022-11-13T14:06:20.777Z,4.18
2022-11-13T14:11:27.003Z,5.22
2022-11-13T14:16:29.509Z,5.63
2022-11-13T14:21:32.103Z,7.60
2022-11-13T14:26:35.837Z,7.18
2022-11-13T14:31:38.203Z,6.20
2022-11-13T14:36:40.880Z,6.97
2022-11-13T14:41:51.605Z,7.45
2022-11-13T14:46:59.769Z,7.20
2022-11-13T14:52:02.354Z,8.05
2022-11-13T14:57:09.899Z,7.10
2022-11-13T15:02:13.088Z,8.57
2022-11-13T15:07:25.230Z,7.93
2022-11-13T15:12:28.976Z,8.85
2022-11-13T15:17:31.548Z,8.23
2022-11-13T15:22:33.951Z,8.90
2022-11-13T15:27:42.714Z,8.55
2022-11-13T15:32:45.623Z,8.95
2022-11-13T15:42:52.823Z,9.27
2022-11-13T15:47:55.207Z,13.27
2022-11-13T15:53:02.354Z,12.43
2022-11-13T15:58:15.314Z,13.32
2022-11-13T16:03:19.180Z,16.02
2022-11-13T16:08:21.554Z,21.63
2022-11-13T16:13:25.332Z,15.75
2022-11-13T16:18:28.864Z,14.95
2022-11-13T16:28:46.901Z,14.05
2022-11-13T16:33:57.827Z,13.90
2022-11-13T16:39:00.167Z,14.65
2022-11-13T16:44:03.852Z,9.70
2022-11-13T16:49:06.315Z,9.93
2022-11-13T16:54:08.699Z,10.02
2022-11-13T16:59:12.875Z,11.90
2022-11-13T17:04:15.342Z,8.75
2022-11-13T17:09:17.686Z,8.82
2022-11-13T17:14:22.590Z,7.80
2022-11-13T17:19:25.059Z,8.52
2022-11-13T17:24:27.422Z,9.43
2022-11-13T17:29:31.247Z,8.27
2022-11-13T17:34:33.625Z,9.57
2022-11-13T17:39:36.009Z,9.38
2022-11-13T17:44:39.718Z,9.73
2022-11-13T17:49:42.075Z,9.57
2022-11-13T17:54:44.531Z,10.82
2022-11-13T17:59:48.398Z,11.63
2022-11-13T18:04:50.765Z,11.75
2022-11-13T18:09:53.367Z,12.50
2022-11-13T18:14:57.177Z,12.10
2022-11-13T18:20:02.073Z,12.23
2022-11-13T18:25:05.193Z,13.05
2022-11-13T18:30:10.008Z,13.70
2022-11-13T18:35:12.407Z,13.55
2022-11-13T18:40:14.772Z,16.13
2022-11-13T18:45:20.067Z,16.02
2022-11-13T18:50:23.870Z,32.92
2022-11-13T18:55:29.259Z,33.05
2022-11-13T19:00:33.782Z,18.83
2022-11-13T19:05:36.378Z,17.33
2022-11-13T19:10:38.755Z,16.00
2022-11-13T19:15:51.504Z,17.23
2022-11-13T19:20:54.163Z,21.13
2022-11-13T19:25:56.588Z,19.67
2022-11-13T19:31:00.389Z,24.08
2022-11-13T19:36:06.878Z,22.08
2022-11-13T19:41:09.644Z,21.55
2022-11-13T19:46:13.846Z,23.43
2022-11-13T19:51:17.282Z,26.08
2022-11-13T19:56:20.676Z,22.88
2022-11-13T20:01:25.108Z,24.15
2022-11-13T20:06:28.245Z,21.58
2022-11-13T20:11:31.074Z,23.60
2022-11-13T20:16:34.798Z,25.90
2022-11-13T20:26:39.382Z,29.50
2022-11-13T20:31:43.156Z,30.02
2022-11-13T20:36:45.577Z,33.28
2022-11-13T20:41:47.926Z,32.33
2022-11-13T20:46:51.736Z,34.35
2022-11-13T20:51:57.156Z,41.22
2022-11-13T20:56:59.846Z,45.53
2022-11-13T21:02:05.209Z,45.58
2022-11-13T21:07:07.800Z,49.08
2022-11-13T21:12:10.206Z,44.83
2022-11-13T21:17:13.978Z,50.30
2022-11-13T21:22:16.334Z,53.92
2022-11-13T21:27:21.566Z,49.75
2022-11-13T21:32:25.276Z,61.05
2022-11-13T21:37:28.071Z,58.78
2022-11-13T21:42:30.434Z,61.37
2022-11-13T21:47:34.201Z,65.55
2022-11-13T21:52:36.567Z,75.03
2022-11-13T21:57:39.044Z,81.13
2022-11-13T22:02:43.256Z,76.22
2022-11-13T22:07:45.615Z,78.03
2022-11-13T22:12:48.002Z,80.07
2022-11-13T22:17:51.750Z,91.05
2022-11-13T22:22:54.127Z,88.72
2022-11-13T22:27:56.574Z,89.10
2022-11-13T22:33:00.398Z,80.80
2022-11-13T22:38:02.887Z,90.85
2022-11-13T22:43:05.262Z,97.50
2022-11-13T22:48:10.369Z,102.75
2022-11-13T22:53:14.607Z,92.78
2022-11-13T22:58:16.973Z,103.40
2022-11-13T23:03:20.727Z,102.20
2022-11-13T23:08:23.111Z,104.22
2022-11-13T23:13:25.490Z,108.18
2022-11-13T23:18:30.312Z,110.05
2022-11-13T23:23:33.360Z,104.90
2022-11-13T23:28:36.130Z,94.13
2022-11-13T23:33:40.213Z,111.50
2022-11-13T23:38:42.552Z,97.88
2022-11-13T23:44:07.629Z,121.88
2022-11-13T23:49:08.593Z,111.47
2022-11-13T23:54:10.965Z,112.97
2022-11-13T23:59:13.426Z,114.63
